Araguaina, Brazil
Current Conditions -  °F | °C
As of 1:00 PM on Thursday 30 Oct 2014 (Local Time) from SBCI Reporting Station
Thunderstorm Thunderstorm  
Wind Chill: 93°   Ceiling: 10000
Heat Index: 103°   Visibility: 6mi
Dew Point: 73°   Wind: 6mph
Humidity: 52%   Direction: 210°SSW
Pressure: 29.83"   Gusts: NA
Location:  7.19°S, 48.21°W
Report Text: SBCI 301600Z 21005KT 9999 TS FEW020 FEW023CB BKN100 34/23 Q1010
Loading
Personal Weather Stations






























Interactive Weather Map
Tropical Storm Tracking
New forecast layout! Learn more

10-Day Weather Forecast

Advertisements
Track Severe Weather on mobile